sensor_id;sensor_type;location;lat;lon;timestamp;P1;durP1;ratioP1;P2;durP2;ratioP2
17340;SDS011;8788;49.930;8.660;2022-07-29T04:07:18;1.25;;;1.15;;
17340;SDS011;8788;49.930;8.660;2022-07-29T04:09:46;3.38;;;1.10;;
17340;SDS011;8788;49.930;8.660;2022-07-29T04:12:13;2.13;;;1.25;;
17340;SDS011;8788;49.930;8.660;2022-07-29T04:14:40;3.00;;;1.10;;
17340;SDS011;8788;49.930;8.660;2022-07-29T04:17:08;1.40;;;1.15;;
17340;SDS011;8788;49.930;8.660;2022-07-29T04:19:35;3.53;;;1.48;;
17340;SDS011;8788;49.930;8.660;2022-07-29T04:22:02;2.63;;;1.40;;
17340;SDS011;8788;49.930;8.660;2022-07-29T04:24:30;1.92;;;1.45;;
17340;SDS011;8788;49.930;8.660;2022-07-29T04:26:58;3.47;;;1.70;;
17340;SDS011;8788;49.930;8.660;2022-07-29T04:29:25;2.65;;;1.23;;
17340;SDS011;8788;49.930;8.660;2022-07-29T04:31:52;2.92;;;1.33;;
17340;SDS011;8788;49.930;8.660;2022-07-29T04:34:19;5.72;;;1.48;;
17340;SDS011;8788;49.930;8.660;2022-07-29T04:36:46;1.10;;;1.00;;
17340;SDS011;8788;49.930;8.660;2022-07-29T04:39:13;2.08;;;1.50;;
17340;SDS011;8788;49.930;8.660;2022-07-29T04:41:42;2.65;;;1.20;;
17340;SDS011;8788;49.930;8.660;2022-07-29T04:44:09;1.67;;;1.20;;
17340;SDS011;8788;49.930;8.660;2022-07-29T04:46:36;4.78;;;1.35;;
17340;SDS011;8788;49.930;8.660;2022-07-29T04:49:04;2.60;;;1.30;;
17340;SDS011;8788;49.930;8.660;2022-07-29T04:51:31;3.13;;;1.23;;
17340;SDS011;8788;49.930;8.660;2022-07-29T04:54:00;2.03;;;1.25;;
17340;SDS011;8788;49.930;8.660;2022-07-29T04:56:27;1.92;;;1.20;;
17340;SDS011;8788;49.930;8.660;2022-07-29T04:58:55;5.13;;;1.63;;
17340;SDS011;8788;49.930;8.660;2022-07-29T05:01:22;2.88;;;1.38;;
17340;SDS011;8788;49.930;8.660;2022-07-29T05:04:15;2.28;;;1.13;;
17340;SDS011;8788;49.930;8.660;2022-07-29T05:06:42;2.63;;;1.10;;
17340;SDS011;8788;49.930;8.660;2022-07-29T05:09:09;2.92;;;1.20;;
17340;SDS011;8788;49.930;8.660;2022-07-29T05:11:36;2.95;;;2.08;;
17340;SDS011;8788;49.930;8.660;2022-07-29T05:14:05;2.35;;;1.30;;
17340;SDS011;8788;49.930;8.660;2022-07-29T05:16:32;2.45;;;1.10;;
17340;SDS011;8788;49.930;8.660;2022-07-29T05:18:59;3.78;;;1.60;;
17340;SDS011;8788;49.930;8.660;2022-07-29T05:21:26;1.48;;;1.15;;
17340;SDS011;8788;49.930;8.660;2022-07-29T05:23:53;2.40;;;1.38;;
17340;SDS011;8788;49.930;8.660;2022-07-29T05:26:20;2.58;;;1.60;;
17340;SDS011;8788;49.930;8.660;2022-07-29T05:28:47;3.28;;;1.40;;
17340;SDS011;8788;49.930;8.660;2022-07-29T05:31:16;1.95;;;1.50;;
17340;SDS011;8788;49.930;8.660;2022-07-29T05:33:43;1.88;;;1.20;;
17340;SDS011;8788;49.930;8.660;2022-07-29T05:36:10;2.45;;;1.42;;
17340;SDS011;8788;49.930;8.660;2022-07-29T05:38:37;2.67;;;1.50;;
17340;SDS011;8788;49.930;8.660;2022-07-29T05:41:04;2.40;;;1.40;;
17340;SDS011;8788;49.930;8.660;2022-07-29T05:43:32;1.45;;;1.30;;
17340;SDS011;8788;49.930;8.660;2022-07-29T05:46:02;1.73;;;1.48;;
17340;SDS011;8788;49.930;8.660;2022-07-29T05:48:31;1.33;;;1.20;;
17340;SDS011;8788;49.930;8.660;2022-07-29T05:50:58;3.47;;;1.48;;
17340;SDS011;8788;49.930;8.660;2022-07-29T05:53:26;3.00;;;1.48;;
17340;SDS011;8788;49.930;8.660;2022-07-29T05:55:53;2.25;;;2.03;;
17340;SDS011;8788;49.930;8.660;2022-07-29T05:58:20;1.83;;;1.30;;
17340;SDS011;8788;49.930;8.660;2022-07-29T06:01:12;3.15;;;1.60;;
17340;SDS011;8788;49.930;8.660;2022-07-29T06:04:06;2.90;;;1.55;;
17340;SDS011;8788;49.930;8.660;2022-07-29T06:06:33;1.75;;;1.48;;
17340;SDS011;8788;49.930;8.660;2022-07-29T06:09:00;2.03;;;1.27;;
17340;SDS011;8788;49.930;8.660;2022-07-29T06:11:28;2.58;;;1.38;;
17340;SDS011;8788;49.930;8.660;2022-07-29T06:13:55;2.80;;;1.85;;
17340;SDS011;8788;49.930;8.660;2022-07-29T06:16:22;3.58;;;1.65;;
17340;SDS011;8788;49.930;8.660;2022-07-29T06:19:16;2.63;;;1.60;;
17340;SDS011;8788;49.930;8.660;2022-07-29T06:21:44;4.30;;;1.65;;
17340;SDS011;8788;49.930;8.660;2022-07-29T06:24:11;2.22;;;1.20;;
17340;SDS011;8788;49.930;8.660;2022-07-29T06:26:39;1.85;;;1.20;;
17340;SDS011;8788;49.930;8.660;2022-07-29T06:29:07;4.20;;;1.38;;
17340;SDS011;8788;49.930;8.660;2022-07-29T06:31:35;2.55;;;1.30;;
17340;SDS011;8788;49.930;8.660;2022-07-29T06:34:07;1.60;;;1.30;;
17340;SDS011;8788;49.930;8.660;2022-07-29T06:36:36;3.08;;;1.50;;
17340;SDS011;8788;49.930;8.660;2022-07-29T06:39:04;2.58;;;1.52;;
17340;SDS011;8788;49.930;8.660;2022-07-29T06:41:32;4.60;;;1.52;;
17340;SDS011;8788;49.930;8.660;2022-07-29T06:44:07;1.90;;;1.40;;
17340;SDS011;8788;49.930;8.660;2022-07-29T06:46:35;4.15;;;1.58;;
17340;SDS011;8788;49.930;8.660;2022-07-29T06:49:05;4.40;;;1.60;;
17340;SDS011;8788;49.930;8.660;2022-07-29T06:51:33;1.42;;;1.30;;
17340;SDS011;8788;49.930;8.660;2022-07-29T06:54:02;3.42;;;1.50;;
17340;SDS011;8788;49.930;8.660;2022-07-29T06:56:33;5.18;;;1.95;;
17340;SDS011;8788;49.930;8.660;2022-07-29T06:59:02;1.63;;;1.40;;
17340;SDS011;8788;49.930;8.660;2022-07-29T07:01:30;5.03;;;1.92;;
17340;SDS011;8788;49.930;8.660;2022-07-29T07:04:23;1.48;;;1.27;;
17340;SDS011;8788;49.930;8.660;2022-07-29T07:06:50;2.47;;;1.65;;
17340;SDS011;8788;49.930;8.660;2022-07-29T07:09:18;5.80;;;1.80;;
17340;SDS011;8788;49.930;8.660;2022-07-29T07:12:10;2.10;;;1.48;;
17340;SDS011;8788;49.930;8.660;2022-07-29T07:14:38;2.97;;;1.60;;
17340;SDS011;8788;49.930;8.660;2022-07-29T07:17:06;3.15;;;1.70;;
17340;SDS011;8788;49.930;8.660;2022-07-29T07:19:33;3.25;;;1.77;;
17340;SDS011;8788;49.930;8.660;2022-07-29T07:22:03;6.60;;;2.42;;
17340;SDS011;8788;49.930;8.660;2022-07-29T07:24:32;5.78;;;1.70;;
17340;SDS011;8788;49.930;8.660;2022-07-29T07:26:59;6.18;;;2.20;;
17340;SDS011;8788;49.930;8.660;2022-07-29T07:29:27;4.40;;;2.10;;
17340;SDS011;8788;49.930;8.660;2022-07-29T07:31:54;3.63;;;1.80;;
17340;SDS011;8788;49.930;8.660;2022-07-29T07:34:21;1.83;;;1.65;;
17340;SDS011;8788;49.930;8.660;2022-07-29T07:36:48;3.97;;;1.92;;
17340;SDS011;8788;49.930;8.660;2022-07-29T07:39:15;3.15;;;2.05;;
17340;SDS011;8788;49.930;8.660;2022-07-29T07:42:09;7.25;;;2.13;;
17340;SDS011;8788;49.930;8.660;2022-07-29T07:44:38;5.40;;;1.60;;
17340;SDS011;8788;49.930;8.660;2022-07-29T07:47:05;7.78;;;2.22;;
17340;SDS011;8788;49.930;8.660;2022-07-29T07:49:32;2.50;;;1.88;;
17340;SDS011;8788;49.930;8.660;2022-07-29T07:51:59;5.28;;;2.17;;
17340;SDS011;8788;49.930;8.660;2022-07-29T07:54:26;3.17;;;1.92;;
17340;SDS011;8788;49.930;8.660;2022-07-29T07:56:54;2.92;;;1.73;;
17340;SDS011;8788;49.930;8.660;2022-07-29T07:59:22;3.88;;;1.73;;
17340;SDS011;8788;49.930;8.660;2022-07-29T08:01:49;2.28;;;1.70;;
17340;SDS011;8788;49.930;8.660;2022-07-29T08:04:17;1.58;;;1.38;;
17340;SDS011;8788;49.930;8.660;2022-07-29T08:06:44;2.17;;;1.85;;
17340;SDS011;8788;49.930;8.660;2022-07-29T08:09:11;2.05;;;1.55;;
17340;SDS011;8788;49.930;8.660;2022-07-29T08:11:38;2.22;;;2.00;;
17340;SDS011;8788;49.930;8.660;2022-07-29T08:14:05;6.63;;;1.83;;
17340;SDS011;8788;49.930;8.660;2022-07-29T08:16:34;2.55;;;1.60;;
17340;SDS011;8788;49.930;8.660;2022-07-29T08:19:01;3.10;;;1.65;;
17340;SDS011;8788;49.930;8.660;2022-07-29T08:21:29;3.80;;;2.00;;
17340;SDS011;8788;49.930;8.660;2022-07-29T08:23:56;2.85;;;2.22;;
17340;SDS011;8788;49.930;8.660;2022-07-29T08:26:37;5.50;;;2.03;;
17340;SDS011;8788;49.930;8.660;2022-07-29T08:29:07;3.60;;;1.83;;
17340;SDS011;8788;49.930;8.660;2022-07-29T08:31:36;3.15;;;2.05;;
17340;SDS011;8788;49.930;8.660;2022-07-29T08:34:06;2.22;;;1.40;;
17340;SDS011;8788;49.930;8.660;2022-07-29T08:36:33;4.68;;;1.90;;
17340;SDS011;8788;49.930;8.660;2022-07-29T08:39:01;4.15;;;1.63;;
17340;SDS011;8788;49.930;8.660;2022-07-29T08:41:29;2.08;;;1.70;;
17340;SDS011;8788;49.930;8.660;2022-07-29T08:43:57;1.90;;;1.58;;
17340;SDS011;8788;49.930;8.660;2022-07-29T08:46:24;3.70;;;1.70;;
17340;SDS011;8788;49.930;8.660;2022-07-29T08:49:18;2.13;;;1.92;;
17340;SDS011;8788;49.930;8.660;2022-07-29T08:51:45;2.10;;;1.90;;
17340;SDS011;8788;49.930;8.660;2022-07-29T08:54:16;3.83;;;1.95;;
17340;SDS011;8788;49.930;8.660;2022-07-29T08:56:44;2.63;;;1.80;;
17340;SDS011;8788;49.930;8.660;2022-07-29T08:59:16;1.60;;;1.50;;
17340;SDS011;8788;49.930;8.660;2022-07-29T09:01:45;2.05;;;1.70;;
17340;SDS011;8788;49.930;8.660;2022-07-29T09:04:14;2.80;;;2.00;;
17340;SDS011;8788;49.930;8.660;2022-07-29T09:06:44;4.25;;;1.90;;
17340;SDS011;8788;49.930;8.660;2022-07-29T09:09:13;3.15;;;2.00;;
17340;SDS011;8788;49.930;8.660;2022-07-29T09:11:41;2.35;;;1.70;;
17340;SDS011;8788;49.930;8.660;2022-07-29T09:14:11;2.40;;;1.70;;
17340;SDS011;8788;49.930;8.660;2022-07-29T09:16:45;1.95;;;1.77;;
17340;SDS011;8788;49.930;8.660;2022-07-29T09:19:24;2.03;;;1.48;;
17340;SDS011;8788;49.930;8.660;2022-07-29T09:21:54;2.80;;;2.08;;
17340;SDS011;8788;49.930;8.660;2022-07-29T09:24:25;2.17;;;1.98;;
17340;SDS011;8788;49.930;8.660;2022-07-29T09:26:54;2.50;;;1.83;;
17340;SDS011;8788;49.930;8.660;2022-07-29T09:29:22;4.85;;;2.28;;
17340;SDS011;8788;49.930;8.660;2022-07-29T09:31:50;2.03;;;1.80;;
17340;SDS011;8788;49.930;8.660;2022-07-29T09:34:22;1.80;;;1.70;;
17340;SDS011;8788;49.930;8.660;2022-07-29T09:36:50;2.20;;;2.00;;
17340;SDS011;8788;49.930;8.660;2022-07-29T09:39:27;3.03;;;2.03;;
17340;SDS011;8788;49.930;8.660;2022-07-29T09:41:56;2.95;;;2.00;;
17340;SDS011;8788;49.930;8.660;2022-07-29T09:44:26;2.03;;;1.73;;
17340;SDS011;8788;49.930;8.660;2022-07-29T09:47:06;2.33;;;1.70;;
17340;SDS011;8788;49.930;8.660;2022-07-29T09:49:33;2.00;;;1.75;;
17340;SDS011;8788;49.930;8.660;2022-07-29T09:52:04;1.92;;;1.80;;
17340;SDS011;8788;49.930;8.660;2022-07-29T09:54:33;1.70;;;1.60;;
17340;SDS011;8788;49.930;8.660;2022-07-29T09:57:05;2.10;;;1.92;;
17340;SDS011;8788;49.930;8.660;2022-07-29T09:59:34;2.40;;;1.58;;
17340;SDS011;8788;49.930;8.660;2022-07-29T10:02:02;2.63;;;1.85;;
17340;SDS011;8788;49.930;8.660;2022-07-29T10:04:39;2.80;;;2.50;;
17340;SDS011;8788;49.930;8.660;2022-07-29T10:07:07;4.68;;;1.88;;
17340;SDS011;8788;49.930;8.660;2022-07-29T10:09:36;2.38;;;1.75;;
17340;SDS011;8788;49.930;8.660;2022-07-29T10:12:04;2.00;;;1.80;;
17340;SDS011;8788;49.930;8.660;2022-07-29T10:14:33;1.98;;;1.58;;
17340;SDS011;8788;49.930;8.660;2022-07-29T10:17:00;4.50;;;2.17;;
17340;SDS011;8788;49.930;8.660;2022-07-29T10:19:28;3.03;;;2.03;;
17340;SDS011;8788;49.930;8.660;2022-07-29T10:21:57;2.83;;;1.98;;
17340;SDS011;8788;49.930;8.660;2022-07-29T10:24:24;1.98;;;1.77;;
17340;SDS011;8788;49.930;8.660;2022-07-29T10:26:55;2.67;;;2.20;;
17340;SDS011;8788;49.930;8.660;2022-07-29T10:29:24;2.30;;;2.00;;
17340;SDS011;8788;49.930;8.660;2022-07-29T10:32:21;1.92;;;1.60;;
17340;SDS011;8788;49.930;8.660;2022-07-29T10:35:06;3.97;;;1.95;;
17340;SDS011;8788;49.930;8.660;2022-07-29T10:40:55;2.58;;;2.38;;
17340;SDS011;8788;49.930;8.660;2022-07-29T10:43:48;2.45;;;1.90;;
17340;SDS011;8788;49.930;8.660;2022-07-29T10:46:16;2.83;;;2.28;;
17340;SDS011;8788;49.930;8.660;2022-07-29T10:51:52;2.67;;;2.00;;
17340;SDS011;8788;49.930;8.660;2022-07-29T10:54:37;2.60;;;1.80;;
17340;SDS011;8788;49.930;8.660;2022-07-29T10:57:19;2.58;;;1.77;;
17340;SDS011;8788;49.930;8.660;2022-07-29T11:00:25;1.98;;;1.77;;
17340;SDS011;8788;49.930;8.660;2022-07-29T11:02:57;8.43;;;2.17;;
17340;SDS011;8788;49.930;8.660;2022-07-29T11:05:25;2.92;;;1.95;;
17340;SDS011;8788;49.930;8.660;2022-07-29T11:10:51;4.68;;;2.03;;
17340;SDS011;8788;49.930;8.660;2022-07-29T11:16:13;3.70;;;2.20;;
17340;SDS011;8788;49.930;8.660;2022-07-29T11:21:43;3.85;;;1.85;;
17340;SDS011;8788;49.930;8.660;2022-07-29T11:24:12;2.67;;;2.10;;
17340;SDS011;8788;49.930;8.660;2022-07-29T11:26:40;2.47;;;2.17;;
17340;SDS011;8788;49.930;8.660;2022-07-29T11:29:15;2.22;;;1.63;;
17340;SDS011;8788;49.930;8.660;2022-07-29T11:31:48;2.30;;;2.03;;
17340;SDS011;8788;49.930;8.660;2022-07-29T11:34:21;2.53;;;1.90;;
17340;SDS011;8788;49.930;8.660;2022-07-29T11:39:42;3.13;;;1.80;;
17340;SDS011;8788;49.930;8.660;2022-07-29T11:45:08;3.35;;;1.75;;
17340;SDS011;8788;49.930;8.660;2022-07-29T11:47:41;2.10;;;1.90;;
17340;SDS011;8788;49.930;8.660;2022-07-29T11:50:13;3.33;;;2.00;;
17340;SDS011;8788;49.930;8.660;2022-07-29T11:52:43;2.08;;;1.90;;
17340;SDS011;8788;49.930;8.660;2022-07-29T11:55:13;2.20;;;1.95;;
17340;SDS011;8788;49.930;8.660;2022-07-29T11:57:45;2.22;;;2.03;;
17340;SDS011;8788;49.930;8.660;2022-07-29T12:00:20;3.33;;;2.40;;
17340;SDS011;8788;49.930;8.660;2022-07-29T12:02:50;2.92;;;2.25;;
17340;SDS011;8788;49.930;8.660;2022-07-29T12:05:18;3.08;;;2.05;;
17340;SDS011;8788;49.930;8.660;2022-07-29T12:07:46;2.47;;;2.28;;
17340;SDS011;8788;49.930;8.660;2022-07-29T12:10:14;2.50;;;2.30;;
17340;SDS011;8788;49.930;8.660;2022-07-29T12:12:41;3.17;;;2.15;;
17340;SDS011;8788;49.930;8.660;2022-07-29T12:15:13;3.45;;;1.85;;
17340;SDS011;8788;49.930;8.660;2022-07-29T12:17:42;4.03;;;2.38;;
17340;SDS011;8788;49.930;8.660;2022-07-29T12:20:13;2.58;;;1.90;;
17340;SDS011;8788;49.930;8.660;2022-07-29T12:23:13;1.98;;;1.88;;
17340;SDS011;8788;49.930;8.660;2022-07-29T12:25:42;2.33;;;2.13;;
17340;SDS011;8788;49.930;8.660;2022-07-29T12:28:10;1.70;;;1.60;;
17340;SDS011;8788;49.930;8.660;2022-07-29T12:30:44;3.72;;;2.08;;
17340;SDS011;8788;49.930;8.660;2022-07-29T12:33:17;2.65;;;1.90;;
17340;SDS011;8788;49.930;8.660;2022-07-29T12:35:48;6.82;;;2.72;;
17340;SDS011;8788;49.930;8.660;2022-07-29T12:38:17;3.65;;;2.63;;
17340;SDS011;8788;49.930;8.660;2022-07-29T12:40:45;2.63;;;2.17;;
17340;SDS011;8788;49.930;8.660;2022-07-29T12:43:13;2.25;;;2.05;;
17340;SDS011;8788;49.930;8.660;2022-07-29T12:45:42;2.10;;;2.00;;
17340;SDS011;8788;49.930;8.660;2022-07-29T12:48:11;2.38;;;2.22;;
17340;SDS011;8788;49.930;8.660;2022-07-29T12:50:56;3.45;;;2.20;;
17340;SDS011;8788;49.930;8.660;2022-07-29T12:53:25;2.22;;;2.00;;
17340;SDS011;8788;49.930;8.660;2022-07-29T12:55:57;3.90;;;2.47;;
17340;SDS011;8788;49.930;8.660;2022-07-29T12:58:27;3.65;;;2.20;;
17340;SDS011;8788;49.930;8.660;2022-07-29T13:01:00;3.20;;;2.08;;
17340;SDS011;8788;49.930;8.660;2022-07-29T13:03:28;3.30;;;2.17;;
17340;SDS011;8788;49.930;8.660;2022-07-29T13:06:08;2.22;;;1.92;;
17340;SDS011;8788;49.930;8.660;2022-07-29T13:09:03;2.63;;;2.20;;
17340;SDS011;8788;49.930;8.660;2022-07-29T13:11:32;2.55;;;2.10;;
17340;SDS011;8788;49.930;8.660;2022-07-29T13:14:00;2.67;;;2.33;;
17340;SDS011;8788;49.930;8.660;2022-07-29T13:16:28;2.60;;;2.10;;
17340;SDS011;8788;49.930;8.660;2022-07-29T13:19:05;2.30;;;2.10;;
17340;SDS011;8788;49.930;8.660;2022-07-29T13:21:35;2.20;;;1.92;;
17340;SDS011;8788;49.930;8.660;2022-07-29T13:24:06;2.85;;;1.80;;
17340;SDS011;8788;49.930;8.660;2022-07-29T13:26:33;2.50;;;2.30;;
17340;SDS011;8788;49.930;8.660;2022-07-29T13:29:02;3.55;;;2.00;;
17340;SDS011;8788;49.930;8.660;2022-07-29T13:31:29;3.25;;;2.28;;
17340;SDS011;8788;49.930;8.660;2022-07-29T13:33:56;2.47;;;1.85;;
17340;SDS011;8788;49.930;8.660;2022-07-29T13:36:24;2.22;;;2.03;;
17340;SDS011;8788;49.930;8.660;2022-07-29T13:38:53;2.30;;;1.98;;
17340;SDS011;8788;49.930;8.660;2022-07-29T13:41:20;3.00;;;1.88;;
17340;SDS011;8788;49.930;8.660;2022-07-29T13:43:47;2.45;;;1.98;;
17340;SDS011;8788;49.930;8.660;2022-07-29T13:46:14;3.22;;;2.10;;
17340;SDS011;8788;49.930;8.660;2022-07-29T13:48:41;4.13;;;1.80;;
17340;SDS011;8788;49.930;8.660;2022-07-29T13:51:08;2.15;;;1.80;;
17340;SDS011;8788;49.930;8.660;2022-07-29T13:53:35;3.80;;;2.00;;
17340;SDS011;8788;49.930;8.660;2022-07-29T13:56:04;4.45;;;2.10;;
17340;SDS011;8788;49.930;8.660;2022-07-29T13:58:32;2.50;;;2.20;;
17340;SDS011;8788;49.930;8.660;2022-07-29T14:00:59;3.00;;;1.80;;
17340;SDS011;8788;49.930;8.660;2022-07-29T14:03:26;2.22;;;1.98;;
17340;SDS011;8788;49.930;8.660;2022-07-29T14:05:54;3.40;;;2.35;;
17340;SDS011;8788;49.930;8.660;2022-07-29T14:08:21;2.60;;;2.13;;
17340;SDS011;8788;49.930;8.660;2022-07-29T14:11:15;3.45;;;2.20;;
17340;SDS011;8788;49.930;8.660;2022-07-29T14:13:42;1.92;;;1.77;;
17340;SDS011;8788;49.930;8.660;2022-07-29T14:16:10;2.33;;;2.13;;
17340;SDS011;8788;49.930;8.660;2022-07-29T14:18:38;2.33;;;2.10;;
17340;SDS011;8788;49.930;8.660;2022-07-29T14:21:05;2.15;;;1.95;;
17340;SDS011;8788;49.930;8.660;2022-07-29T14:23:32;2.97;;;1.77;;
17340;SDS011;8788;49.930;8.660;2022-07-29T14:25:59;2.25;;;2.05;;
17340;SDS011;8788;49.930;8.660;2022-07-29T14:28:28;2.65;;;1.90;;
17340;SDS011;8788;49.930;8.660;2022-07-29T14:30:55;2.05;;;1.95;;
17340;SDS011;8788;49.930;8.660;2022-07-29T14:33:22;3.08;;;1.85;;
17340;SDS011;8788;49.930;8.660;2022-07-29T14:35:49;4.20;;;1.85;;
17340;SDS011;8788;49.930;8.660;2022-07-29T14:38:16;2.45;;;1.80;;
17340;SDS011;8788;49.930;8.660;2022-07-29T14:40:44;2.47;;;1.98;;
17340;SDS011;8788;49.930;8.660;2022-07-29T14:43:11;1.70;;;1.40;;
17340;SDS011;8788;49.930;8.660;2022-07-29T14:45:40;1.65;;;1.55;;
17340;SDS011;8788;49.930;8.660;2022-07-29T14:48:07;2.92;;;2.00;;
17340;SDS011;8788;49.930;8.660;2022-07-29T14:50:36;4.40;;;1.92;;
17340;SDS011;8788;49.930;8.660;2022-07-29T14:53:04;2.85;;;1.73;;
17340;SDS011;8788;49.930;8.660;2022-07-29T14:55:31;1.92;;;1.73;;
17340;SDS011;8788;49.930;8.660;2022-07-29T14:58:00;3.88;;;1.77;;
17340;SDS011;8788;49.930;8.660;2022-07-29T15:00:27;1.88;;;1.65;;
17340;SDS011;8788;49.930;8.660;2022-07-29T15:02:58;4.95;;;1.60;;
17340;SDS011;8788;49.930;8.660;2022-07-29T15:05:26;4.35;;;2.38;;
17340;SDS011;8788;49.930;8.660;2022-07-29T15:07:53;2.83;;;1.95;;
17340;SDS011;8788;49.930;8.660;2022-07-29T15:10:20;4.97;;;2.15;;
17340;SDS011;8788;49.930;8.660;2022-07-29T15:12:47;3.97;;;2.00;;
17340;SDS011;8788;49.930;8.660;2022-07-29T15:15:14;2.97;;;1.88;;
17340;SDS011;8788;49.930;8.660;2022-07-29T15:18:08;3.45;;;1.95;;
17340;SDS011;8788;49.930;8.660;2022-07-29T15:20:35;2.53;;;1.77;;
17340;SDS011;8788;49.930;8.660;2022-07-29T15:23:02;2.53;;;2.10;;
17340;SDS011;8788;49.930;8.660;2022-07-29T15:25:29;3.28;;;1.77;;
17340;SDS011;8788;49.930;8.660;2022-07-29T15:27:59;1.88;;;1.77;;
17340;SDS011;8788;49.930;8.660;2022-07-29T15:30:29;1.85;;;1.65;;
17340;SDS011;8788;49.930;8.660;2022-07-29T15:32:56;1.98;;;1.88;;
17340;SDS011;8788;49.930;8.660;2022-07-29T15:35:25;1.80;;;1.48;;
17340;SDS011;8788;49.930;8.660;2022-07-29T15:38:17;2.28;;;2.00;;
17340;SDS011;8788;49.930;8.660;2022-07-29T15:40:44;2.97;;;2.25;;
17340;SDS011;8788;49.930;8.660;2022-07-29T15:43:11;3.70;;;1.90;;
17340;SDS011;8788;49.930;8.660;2022-07-29T15:45:39;2.35;;;1.55;;
17340;SDS011;8788;49.930;8.660;2022-07-29T15:48:27;1.55;;;1.40;;
17340;SDS011;8788;49.930;8.660;2022-07-29T15:50:56;4.07;;;1.58;;
17340;SDS011;8788;49.930;8.660;2022-07-29T15:53:23;2.08;;;1.77;;
17340;SDS011;8788;49.930;8.660;2022-07-29T15:55:50;4.72;;;1.65;;
17340;SDS011;8788;49.930;8.660;2022-07-29T15:58:17;1.70;;;1.60;;
17340;SDS011;8788;49.930;8.660;2022-07-29T16:00:44;1.92;;;1.83;;
17340;SDS011;8788;49.930;8.660;2022-07-29T16:03:12;2.92;;;1.77;;
17340;SDS011;8788;49.930;8.660;2022-07-29T16:05:39;2.30;;;1.85;;
17340;SDS011;8788;49.930;8.660;2022-07-29T16:08:08;1.80;;;1.70;;
17340;SDS011;8788;49.930;8.660;2022-07-29T16:10:35;2.20;;;1.70;;
17340;SDS011;8788;49.930;8.660;2022-07-29T16:13:02;3.83;;;1.83;;
17340;SDS011;8788;49.930;8.660;2022-07-29T16:15:29;2.03;;;1.83;;
17340;SDS011;8788;49.930;8.660;2022-07-29T16:17:56;2.00;;;1.90;;
17340;SDS011;8788;49.930;8.660;2022-07-29T16:20:25;2.78;;;2.50;;
17340;SDS011;8788;49.930;8.660;2022-07-29T16:22:52;4.78;;;2.60;;
17340;SDS011;8788;49.930;8.660;2022-07-29T16:25:20;2.08;;;1.88;;
17340;SDS011;8788;49.930;8.660;2022-07-29T16:28:13;2.45;;;1.77;;
17340;SDS011;8788;49.930;8.660;2022-07-29T16:30:41;3.30;;;2.13;;
17340;SDS011;8788;49.930;8.660;2022-07-29T16:33:08;2.30;;;2.10;;
17340;SDS011;8788;49.930;8.660;2022-07-29T16:35:35;2.33;;;2.10;;
17340;SDS011;8788;49.930;8.660;2022-07-29T16:38:04;2.65;;;2.45;;
17340;SDS011;8788;49.930;8.660;2022-07-29T16:40:32;3.17;;;2.40;;
17340;SDS011;8788;49.930;8.660;2022-07-29T16:43:00;2.60;;;2.40;;
17340;SDS011;8788;49.930;8.660;2022-07-29T16:45:27;2.50;;;2.30;;
17340;SDS011;8788;49.930;8.660;2022-07-29T16:47:54;2.90;;;2.60;;
17340;SDS011;8788;49.930;8.660;2022-07-29T16:50:21;4.10;;;2.63;;
17340;SDS011;8788;49.930;8.660;2022-07-29T16:52:49;3.05;;;2.75;;
17340;SDS011;8788;49.930;8.660;2022-07-29T16:55:17;2.75;;;2.53;;
17340;SDS011;8788;49.930;8.660;2022-07-29T16:57:46;2.70;;;2.22;;
17340;SDS011;8788;49.930;8.660;2022-07-29T17:00:13;2.60;;;2.33;;
17340;SDS011;8788;49.930;8.660;2022-07-29T17:02:41;3.10;;;2.80;;
17340;SDS011;8788;49.930;8.660;2022-07-29T17:05:10;3.92;;;2.58;;
17340;SDS011;8788;49.930;8.660;2022-07-29T17:07:38;3.20;;;2.50;;
17340;SDS011;8788;49.930;8.660;2022-07-29T17:10:06;4.32;;;2.80;;
17340;SDS011;8788;49.930;8.660;2022-07-29T17:12:34;2.25;;;1.90;;
17340;SDS011;8788;49.930;8.660;2022-07-29T17:15:04;2.38;;;2.17;;
17340;SDS011;8788;49.930;8.660;2022-07-29T17:17:33;4.15;;;2.47;;
17340;SDS011;8788;49.930;8.660;2022-07-29T17:20:04;3.00;;;2.08;;
17340;SDS011;8788;49.930;8.660;2022-07-29T17:22:32;3.90;;;2.28;;
17340;SDS011;8788;49.930;8.660;2022-07-29T17:24:59;1.88;;;1.77;;
17340;SDS011;8788;49.930;8.660;2022-07-29T17:27:27;2.35;;;1.88;;
17340;SDS011;8788;49.930;8.660;2022-07-29T17:29:54;2.45;;;1.65;;
17340;SDS011;8788;49.930;8.660;2022-07-29T17:32:22;1.48;;;1.38;;
17340;SDS011;8788;49.930;8.660;2022-07-29T17:34:50;2.25;;;1.80;;
17340;SDS011;8788;49.930;8.660;2022-07-29T17:37:17;1.90;;;1.60;;
17340;SDS011;8788;49.930;8.660;2022-07-29T17:39:45;1.88;;;1.77;;
17340;SDS011;8788;49.930;8.660;2022-07-29T17:42:12;1.60;;;1.50;;
17340;SDS011;8788;49.930;8.660;2022-07-29T17:44:40;1.42;;;1.30;;
17340;SDS011;8788;49.930;8.660;2022-07-29T17:47:07;1.60;;;1.50;;
17340;SDS011;8788;49.930;8.660;2022-07-29T17:49:36;1.67;;;1.58;;
17340;SDS011;8788;49.930;8.660;2022-07-29T17:52:04;2.05;;;1.63;;
17340;SDS011;8788;49.930;8.660;2022-07-29T17:54:31;4.20;;;1.50;;
17340;SDS011;8788;49.930;8.660;2022-07-29T17:56:59;3.80;;;1.77;;
17340;SDS011;8788;49.930;8.660;2022-07-29T17:59:26;1.52;;;1.42;;
17340;SDS011;8788;49.930;8.660;2022-07-29T18:01:53;1.75;;;1.52;;
17340;SDS011;8788;49.930;8.660;2022-07-29T18:04:20;1.45;;;1.35;;
17340;SDS011;8788;49.930;8.660;2022-07-29T18:06:49;2.53;;;1.80;;
17340;SDS011;8788;49.930;8.660;2022-07-29T18:09:16;1.67;;;1.52;;
17340;SDS011;8788;49.930;8.660;2022-07-29T18:11:44;2.78;;;1.88;;
17340;SDS011;8788;49.930;8.660;2022-07-29T18:14:13;2.42;;;1.83;;
17340;SDS011;8788;49.930;8.660;2022-07-29T18:16:40;1.88;;;1.77;;
17340;SDS011;8788;49.930;8.660;2022-07-29T18:19:07;1.90;;;1.80;;
17340;SDS011;8788;49.930;8.660;2022-07-29T18:21:34;1.55;;;1.30;;
17340;SDS011;8788;49.930;8.660;2022-07-29T18:24:02;1.75;;;1.65;;
17340;SDS011;8788;49.930;8.660;2022-07-29T18:26:30;2.58;;;2.20;;
17340;SDS011;8788;49.930;8.660;2022-07-29T18:28:57;1.90;;;1.80;;
17340;SDS011;8788;49.930;8.660;2022-07-29T18:31:24;3.30;;;2.38;;
17340;SDS011;8788;49.930;8.660;2022-07-29T18:33:51;2.30;;;2.20;;
17340;SDS011;8788;49.930;8.660;2022-07-29T18:36:18;2.50;;;2.25;;
17340;SDS011;8788;49.930;8.660;2022-07-29T18:38:45;2.40;;;2.20;;
17340;SDS011;8788;49.930;8.660;2022-07-29T18:41:14;3.50;;;1.67;;
17340;SDS011;8788;49.930;8.660;2022-07-29T18:43:41;2.85;;;1.58;;
17340;SDS011;8788;49.930;8.660;2022-07-29T18:46:09;3.15;;;1.58;;
17340;SDS011;8788;49.930;8.660;2022-07-29T18:48:36;2.05;;;1.80;;
17340;SDS011;8788;49.930;8.660;2022-07-29T18:51:03;1.70;;;1.60;;
17340;SDS011;8788;49.930;8.660;2022-07-29T18:53:30;3.13;;;2.30;;
17340;SDS011;8788;49.930;8.660;2022-07-29T18:55:58;3.75;;;2.13;;
17340;SDS011;8788;49.930;8.660;2022-07-29T18:58:27;2.17;;;1.98;;
17340;SDS011;8788;49.930;8.660;2022-07-29T19:00:55;1.65;;;1.55;;
17340;SDS011;8788;49.930;8.660;2022-07-29T19:03:22;2.83;;;2.63;;
17340;SDS011;8788;49.930;8.660;2022-07-29T19:05:49;6.28;;;2.47;;
17340;SDS011;8788;49.930;8.660;2022-07-29T19:08:17;2.55;;;1.90;;
17340;SDS011;8788;49.930;8.660;2022-07-29T19:11:09;2.92;;;2.13;;
17340;SDS011;8788;49.930;8.660;2022-07-29T19:13:38;3.33;;;1.90;;
17340;SDS011;8788;49.930;8.660;2022-07-29T19:16:06;2.25;;;2.00;;
17340;SDS011;8788;49.930;8.660;2022-07-29T19:18:37;2.30;;;2.20;;
17340;SDS011;8788;49.930;8.660;2022-07-29T19:21:04;2.90;;;2.65;;
17340;SDS011;8788;49.930;8.660;2022-07-29T19:23:31;3.25;;;2.35;;
17340;SDS011;8788;49.930;8.660;2022-07-29T19:25:58;3.35;;;2.47;;
17340;SDS011;8788;49.930;8.660;2022-07-29T19:28:25;4.38;;;2.50;;
17340;SDS011;8788;49.930;8.660;2022-07-29T19:30:54;3.70;;;2.33;;
17340;SDS011;8788;49.930;8.660;2022-07-29T19:33:21;6.53;;;2.33;;
17340;SDS011;8788;49.930;8.660;2022-07-29T19:35:49;3.17;;;2.88;;
17340;SDS011;8788;49.930;8.660;2022-07-29T19:38:16;3.60;;;2.38;;
17340;SDS011;8788;49.930;8.660;2022-07-29T19:41:08;2.55;;;2.35;;
17340;SDS011;8788;49.930;8.660;2022-07-29T19:43:35;2.67;;;2.47;;